Time;durP1;ratioP1;P1;durP2;ratioP2;P2;SDS_P1;SDS_P2;PMS_P1;PMS_P2;Temp;Humidity;BMP_temperature;BMP_pressure;BME280_temperature;BME280_humidity;BME280_pressure;Samples;Min_cycle;Max_cycle;Signal;HPM_P1;HPM_P2
2022/10/28 00:02:14;;;;;;;29.90;19.98;;;;;;;;;;5092904;28;20024;-66
2022/10/28 00:04:40;;;;;;;24.13;13.02;;;;;;;;;;5091957;28;20016;-66
2022/10/28 00:07:06;;;;;;;23.50;13.52;;;;;;;;;;5092790;28;20026;-66
2022/10/28 00:09:32;;;;;;;34.35;22.38;;;;;;;;;;5074750;28;20084;-66
2022/10/28 00:11:58;;;;;;;32.75;14.55;;;;;;;;;;5073120;28;20072;-66
2022/10/28 00:14:24;;;;;;;25.90;14.90;;;;;;;;;;5054026;28;20041;-66
2022/10/28 00:16:50;;;;;;;24.23;14.70;;;;;;;;;;5072730;28;20017;-65
2022/10/28 00:19:16;;;;;;;29.25;16.75;;;;;;;;;;5073370;28;20021;-65
2022/10/28 00:21:43;;;;;;;21.98;13.85;;;;;;;;;;5072362;28;20027;-66
2022/10/28 00:24:10;;;;;;;24.20;13.50;;;;;;;;;;5072029;28;20052;-66
2022/10/28 00:26:37;;;;;;;25.17;14.07;;;;;;;;;;5092383;28;20099;-66
2022/10/28 00:29:05;;;;;;;25.90;13.20;;;;;;;;;;5092439;28;20036;-66
2022/10/28 00:31:31;;;;;;;32.22;18.67;;;;;;;;;;5076192;28;20503;-66
2022/10/28 00:33:58;;;;;;;33.55;20.98;;;;;;;;;;5091487;28;20043;-66
2022/10/28 00:36:32;;;;;;;26.85;17.33;;;;;;;;;;5092326;28;20416;-66
2022/10/28 00:38:58;;;;;;;24.20;14.90;;;;;;;;;;5072242;28;20071;-65
2022/10/28 00:41:27;;;;;;;31.40;21.13;;;;;;;;;;5092221;28;20409;-66
2022/10/28 00:43:54;;;;;;;29.80;19.40;;;;;;;;;;5091420;28;20024;-66
2022/10/28 00:46:29;;;;;;;25.23;13.40;;;;;;;;;;5074003;28;20025;-66
2022/10/28 00:49:05;;;;;;;27.00;17.58;;;;;;;;;;5091728;28;20047;-65
2022/10/28 00:51:33;;;;;;;26.17;16.33;;;;;;;;;;5073781;28;20028;-66
2022/10/28 00:53:59;;;;;;;26.40;18.05;;;;;;;;;;5072902;28;20020;-66
2022/10/28 00:56:27;;;;;;;30.48;16.92;;;;;;;;;;5092151;28;20069;-66
2022/10/28 00:58:53;;;;;;;;;;;;;;;;;;5092194;28;20371;-65
2022/10/28 01:01:19;;;;;;;25.25;15.07;;;;;;;;;;5090901;28;20002;-66
2022/10/28 01:03:46;;;;;;;27.40;16.65;;;;;;;;;;5072864;28;20036;-65
2022/10/28 01:06:13;;;;;;;28.08;17.40;;;;;;;;;;5091805;28;20046;-66
2022/10/28 01:08:39;;;;;;;30.98;18.85;;;;;;;;;;5088374;28;20064;-66
2022/10/28 01:11:08;;;;;;;26.52;16.42;;;;;;;;;;5071638;28;20162;-66
2022/10/28 01:13:45;;;;;;;25.73;16.92;;;;;;;;;;5052708;28;20024;-66
2022/10/28 01:16:29;;;;;;;28.67;13.27;;;;;;;;;;5071392;28;20025;-65
2022/10/28 01:18:55;;;;;;;25.23;15.27;;;;;;;;;;5071302;28;20024;-66
2022/10/28 01:21:50;;;;;;;21.38;12.57;;;;;;;;;;5071449;28;20369;-66
2022/10/28 01:24:26;;;;;;;27.08;15.35;;;;;;;;;;5053349;28;20029;-66
2022/10/28 01:27:01;;;;;;;25.10;13.40;;;;;;;;;;5071108;28;20021;-66
2022/10/28 01:29:39;;;;;;;26.52;13.52;;;;;;;;;;5089319;28;20024;-66
2022/10/28 01:32:25;;;;;;;25.58;14.20;;;;;;;;;;5090871;28;20039;-66
2022/10/28 01:34:54;;;;;;;24.08;13.88;;;;;;;;;;5089695;28;20031;-66
2022/10/28 01:37:29;;;;;;;22.30;13.55;;;;;;;;;;5072861;28;20020;-65
2022/10/28 01:40:05;;;;;;;24.67;12.25;;;;;;;;;;5091158;28;20069;-66
2022/10/28 01:42:31;;;;;;;27.65;13.35;;;;;;;;;;5091224;28;20008;-66
2022/10/28 01:45:07;;;;;;;21.92;12.85;;;;;;;;;;5090247;28;20502;-65
2022/10/28 01:47:38;;;;;;;24.42;12.82;;;;;;;;;;5090727;28;20020;-65
2022/10/28 01:50:04;;;;;;;21.55;13.07;;;;;;;;;;5090964;28;20031;-65
2022/10/28 01:52:31;;;;;;;22.05;12.50;;;;;;;;;;5072776;28;20109;-65
2022/10/28 01:55:10;;;;;;;24.95;12.73;;;;;;;;;;5090219;28;20065;-65
2022/10/28 01:57:37;;;;;;;27.15;14.98;;;;;;;;;;5092436;28;20433;-66
2022/10/28 02:00:03;;;;;;;25.08;13.40;;;;;;;;;;5073951;28;20523;-65
2022/10/28 02:02:32;;;;;;;23.60;13.57;;;;;;;;;;5070602;28;20020;-65
2022/10/28 02:05:16;;;;;;;23.98;13.27;;;;;;;;;;5069916;28;20050;-65
2022/10/28 02:07:43;;;;;;;24.35;14.20;;;;;;;;;;5070460;28;20111;-65
2022/10/28 02:10:15;;;;;;;23.92;13.35;;;;;;;;;;5070560;28;20028;-65
2022/10/28 02:12:41;;;;;;;24.25;13.23;;;;;;;;;;5070269;28;20016;-65
2022/10/28 02:15:14;;;;;;;24.25;12.95;;;;;;;;;;5052961;28;20092;-65
2022/10/28 02:17:43;;;;;;;24.75;13.57;;;;;;;;;;5070616;28;20107;-66
2022/10/28 02:20:33;;;;;;;23.38;14.18;;;;;;;;;;5070461;28;20023;-65
2022/10/28 02:23:11;;;;;;;23.20;13.77;;;;;;;;;;5032981;28;20033;-65
2022/10/28 02:25:42;;;;;;;24.27;13.65;;;;;;;;;;5070481;28;20021;-65
2022/10/28 02:28:10;;;;;;;22.15;13.50;;;;;;;;;;5070561;28;20033;-65
2022/10/28 02:30:43;;;;;;;21.90;13.50;;;;;;;;;;5070484;28;20395;-65
2022/10/28 02:33:11;;;;;;;23.95;14.63;;;;;;;;;;5051503;28;20039;-65
2022/10/28 02:35:39;;;;;;;28.87;15.10;;;;;;;;;;5072451;28;20056;-66
2022/10/28 02:38:08;;;;;;;26.92;16.33;;;;;;;;;;5089621;28;20467;-66
2022/10/28 02:40:36;;;;;;;27.10;16.08;;;;;;;;;;5072059;28;20069;-66
2022/10/28 02:43:03;;;;;;;29.30;16.53;;;;;;;;;;5089688;28;20020;-64
2022/10/28 02:45:36;;;;;;;28.00;16.20;;;;;;;;;;5090340;28;20062;-66
2022/10/28 02:48:15;;;;;;;29.77;17.02;;;;;;;;;;5090121;28;20395;-65
2022/10/28 02:50:45;;;;;;;36.00;17.55;;;;;;;;;;5090396;28;20033;-66
2022/10/28 02:53:15;;;;;;;26.48;16.88;;;;;;;;;;5089736;28;20031;-66
2022/10/28 02:55:43;;;;;;;25.35;14.88;;;;;;;;;;5090214;28;20028;-66
2022/10/28 02:58:09;;;;;;;25.27;15.32;;;;;;;;;;5090165;28;20012;-65
2022/10/28 03:00:35;;;;;;;24.27;15.27;;;;;;;;;;5073189;28;20028;-66
2022/10/28 03:03:01;;;;;;;22.60;16.02;;;;;;;;;;5069414;28;20101;-66
2022/10/28 03:05:27;;;;;;;25.02;15.43;;;;;;;;;;5069706;28;20070;-66
2022/10/28 03:07:53;;;;;;;28.70;13.90;;;;;;;;;;5069876;28;20020;-65
2022/10/28 03:10:19;;;;;;;24.90;14.40;;;;;;;;;;5070094;28;20484;-66
2022/10/28 03:12:45;;;;;;;24.27;15.27;;;;;;;;;;5069898;28;20025;-66
2022/10/28 03:15:11;;;;;;;25.50;14.57;;;;;;;;;;5069112;28;20035;-66
2022/10/28 03:17:37;;;;;;;21.70;14.93;;;;;;;;;;5051648;28;20029;-66
2022/10/28 03:20:03;;;;;;;25.63;15.13;;;;;;;;;;5069816;28;20115;-66
2022/10/28 03:22:29;;;;;;;25.25;15.27;;;;;;;;;;5069811;28;20064;-66
2022/10/28 03:24:55;;;;;;;23.10;14.98;;;;;;;;;;5071792;28;20053;-66
2022/10/28 03:27:21;;;;;;;24.17;15.07;;;;;;;;;;5073194;28;20466;-66
2022/10/28 03:29:47;;;;;;;29.98;16.70;;;;;;;;;;5073274;28;20064;-66
2022/10/28 03:32:13;;;;;;;26.02;14.93;;;;;;;;;;5055418;28;20070;-66
2022/10/28 03:34:39;;;;;;;25.65;14.95;;;;;;;;;;5072462;28;20024;-66
2022/10/28 03:37:05;;;;;;;22.23;14.65;;;;;;;;;;5073009;28;20035;-66
2022/10/28 03:39:31;;;;;;;24.42;14.63;;;;;;;;;;5073143;28;20013;-66
2022/10/28 03:41:57;;;;;;;28.75;15.40;;;;;;;;;;5055940;28;20497;-66
2022/10/28 03:44:23;;;;;;;24.52;15.15;;;;;;;;;;5072310;28;20048;-65
2022/10/28 03:46:49;;;;;;;23.58;15.77;;;;;;;;;;5072924;28;20021;-66
2022/10/28 03:49:15;;;;;;;29.63;17.45;;;;;;;;;;5072660;28;20039;-66
2022/10/28 03:51:41;;;;;;;26.45;16.10;;;;;;;;;;5055100;28;20091;-66
2022/10/28 03:54:07;;;;;;;27.42;16.98;;;;;;;;;;5072356;28;20119;-66
2022/10/28 03:56:33;;;;;;;29.90;17.08;;;;;;;;;;5054964;28;20032;-66
2022/10/28 03:58:59;;;;;;;26.38;15.52;;;;;;;;;;5102557;28;20065;-66
2022/10/28 04:01:25;;;;;;;24.23;15.30;;;;;;;;;;5095128;28;20020;-66
2022/10/28 04:03:51;;;;;;;25.58;15.25;;;;;;;;;;5094280;28;20106;-66
2022/10/28 04:06:17;;;;;;;26.77;16.00;;;;;;;;;;5113384;28;20352;-66
2022/10/28 04:08:43;;;;;;;28.83;16.25;;;;;;;;;;5094958;28;20080;-66
2022/10/28 04:11:09;;;;;;;25.63;15.40;;;;;;;;;;5094913;28;20118;-64
2022/10/28 04:13:35;;;;;;;22.27;15.45;;;;;;;;;;5094099;28;20123;-67
2022/10/28 04:16:01;;;;;;;24.83;15.30;;;;;;;;;;5113193;28;20023;-65
2022/10/28 04:18:27;;;;;;;24.38;15.32;;;;;;;;;;5088882;28;20024;-66
2022/10/28 04:20:53;;;;;;;24.98;15.70;;;;;;;;;;5074693;28;20023;-66
2022/10/28 04:23:19;;;;;;;23.35;14.55;;;;;;;;;;5073773;28;20020;-67
2022/10/28 04:25:45;;;;;;;24.60;14.82;;;;;;;;;;5092652;28;20053;-66
2022/10/28 04:28:11;;;;;;;28.15;15.55;;;;;;;;;;5090614;28;20036;-66
2022/10/28 04:30:37;;;;;;;29.90;16.55;;;;;;;;;;5092272;28;20127;-66
2022/10/28 04:33:03;;;;;;;26.98;15.85;;;;;;;;;;5091387;28;20016;-64
2022/10/28 04:35:29;;;;;;;24.80;16.55;;;;;;;;;;5073799;28;20035;-66
2022/10/28 04:37:55;;;;;;;24.08;15.05;;;;;;;;;;5092260;28;20439;-65
2022/10/28 04:40:21;;;;;;;25.95;16.92;;;;;;;;;;5092159;28;20042;-65
2022/10/28 04:42:47;;;;;;;26.88;16.55;;;;;;;;;;5092038;28;20050;-63
2022/10/28 04:45:14;;;;;;;26.20;16.20;;;;;;;;;;5073241;28;20111;-67
2022/10/28 04:47:40;;;;;;;24.15;15.60;;;;;;;;;;5111731;22;20043;-63
2022/10/28 04:50:06;;;;;;;29.33;18.63;;;;;;;;;;5071607;28;20028;-64
2022/10/28 04:52:32;;;;;;;25.88;16.15;;;;;;;;;;5058859;28;20027;-64
2022/10/28 04:54:58;;;;;;;21.88;14.93;;;;;;;;;;5050893;28;20029;-64
2022/10/28 04:57:24;;;;;;;23.88;15.40;;;;;;;;;;5035158;28;20048;-63
2022/10/28 04:59:50;;;;;;;26.70;14.82;;;;;;;;;;5062273;28;20051;-63
2022/10/28 05:02:16;;;;;;;25.90;14.55;;;;;;;;;;5053102;28;20048;-64
2022/10/28 05:04:42;;;;;;;23.80;15.27;;;;;;;;;;5052293;28;20021;-64
2022/10/28 05:07:08;;;;;;;22.92;14.10;;;;;;;;;;5052768;28;20021;-64
2022/10/28 05:09:34;;;;;;;24.75;15.13;;;;;;;;;;5034878;28;20053;-65
2022/10/28 05:12:00;;;;;;;24.67;14.27;;;;;;;;;;5052712;28;20487;-64
2022/10/28 05:14:26;;;;;;;26.63;13.43;;;;;;;;;;5051952;28;20025;-64
2022/10/28 05:16:52;;;;;;;23.35;12.80;;;;;;;;;;5052904;28;20374;-63
2022/10/28 05:19:18;;;;;;;24.95;13.75;;;;;;;;;;5052626;28;20013;-64
2022/10/28 05:21:44;;;;;;;23.35;13.10;;;;;;;;;;5052178;28;20017;-64
2022/10/28 05:24:10;;;;;;;22.25;13.13;;;;;;;;;;5033848;28;20021;-64
2022/10/28 05:26:36;;;;;;;28.35;13.68;;;;;;;;;;5070348;28;20028;-64
2022/10/28 05:29:02;;;;;;;25.60;11.88;;;;;;;;;;5039847;28;20468;-65
2022/10/28 05:31:28;;;;;;;25.60;12.82;;;;;;;;;;5034407;28;20024;-64
2022/10/28 05:33:55;;;;;;;23.15;12.27;;;;;;;;;;5051360;28;20032;-63
2022/10/28 05:36:20;;;;;;;23.45;11.63;;;;;;;;;;5034487;28;20052;-65
2022/10/28 05:38:48;;;;;;;25.13;12.02;;;;;;;;;;5052513;28;20024;-65
2022/10/28 05:41:14;;;;;;;21.48;12.73;;;;;;;;;;5052305;28;20373;-69
2022/10/28 05:43:40;;;;;;;24.15;12.57;;;;;;;;;;5051672;28;20516;-64
2022/10/28 05:46:06;;;;;;;24.50;12.45;;;;;;;;;;5049874;28;20465;-65
2022/10/28 05:48:32;;;;;;;27.77;11.65;;;;;;;;;;5052160;28;20113;-64
2022/10/28 05:50:58;;;;;;;21.20;11.50;;;;;;;;;;5053003;28;20100;-65
2022/10/28 05:53:24;;;;;;;24.27;12.10;;;;;;;;;;5053162;28;20055;-62
2022/10/28 05:55:50;;;;;;;21.45;11.85;;;;;;;;;;5071813;28;20071;-63
2022/10/28 05:58:16;;;;;;;24.95;12.02;;;;;;;;;;5067005;28;20108;-65
2022/10/28 06:00:42;;;;;;;22.13;11.05;;;;;;;;;;5052189;28;20017;-65
2022/10/28 06:03:11;;;;;;;22.67;11.50;;;;;;;;;;5033238;28;20021;-64
2022/10/28 06:05:37;;;;;;;24.92;12.35;;;;;;;;;;5034144;28;20495;-64
2022/10/28 06:08:03;;;;;;;22.35;11.43;;;;;;;;;;5051567;28;20365;-65
2022/10/28 06:10:29;;;;;;;22.55;12.60;;;;;;;;;;5051852;28;20457;-65
2022/10/28 06:12:56;;;;;;;20.63;11.32;;;;;;;;;;5033987;28;20033;-63
2022/10/28 06:15:22;;;;;;;23.98;12.50;;;;;;;;;;5050957;28;20464;-64
2022/10/28 06:17:48;;;;;;;25.73;11.98;;;;;;;;;;5051317;28;20483;-64
2022/10/28 06:20:15;;;;;;;25.27;12.48;;;;;;;;;;5051440;28;20480;-64
2022/10/28 06:22:48;;;;;;;26.92;11.85;;;;;;;;;;5051109;28;20108;-63
2022/10/28 06:25:14;;;;;;;23.63;11.32;;;;;;;;;;5052140;28;20484;-64
2022/10/28 06:27:40;;;;;;;31.75;12.13;;;;;;;;;;5039331;28;20036;-65
2022/10/28 06:30:06;;;;;;;24.52;11.00;;;;;;;;;;5033577;28;20033;-64
2022/10/28 06:32:32;;;;;;;27.25;12.02;;;;;;;;;;5033309;28;20117;-64
2022/10/28 06:34:58;;;;;;;25.95;11.70;;;;;;;;;;5050678;28;20021;-66
2022/10/28 06:37:24;;;;;;;25.77;12.25;;;;;;;;;;5033450;28;20028;-64
2022/10/28 06:39:52;;;;;;;22.90;11.40;;;;;;;;;;5033327;28;20381;-66
2022/10/28 06:42:18;;;;;;;23.15;11.75;;;;;;;;;;5051400;28;20024;-65
2022/10/28 06:44:44;;;;;;;24.67;12.07;;;;;;;;;;5032703;28;20102;-65
2022/10/28 06:47:10;;;;;;;21.85;11.20;;;;;;;;;;5033282;28;20477;-64
2022/10/28 06:49:36;;;;;;;22.30;12.32;;;;;;;;;;5051182;28;20032;-65
2022/10/28 06:52:02;;;;;;;22.10;11.18;;;;;;;;;;5051110;28;20027;-64
2022/10/28 06:54:28;;;;;;;21.40;11.95;;;;;;;;;;5090037;28;20067;-65
2022/10/28 06:56:54;;;;;;;23.10;11.18;;;;;;;;;;5079442;28;20095;-64
2022/10/28 06:59:20;;;;;;;19.75;10.75;;;;;;;;;;5052964;28;20017;-64
2022/10/28 07:01:46;;;;;;;20.77;11.35;;;;;;;;;;5054990;28;20021;-65
2022/10/28 07:04:13;;;;;;;21.20;10.95;;;;;;;;;;5054424;28;20017;-66
2022/10/28 07:06:40;;;;;;;25.13;11.43;;;;;;;;;;5037257;28;20032;-65
2022/10/28 07:09:06;;;;;;;28.27;11.07;;;;;;;;;;5055277;28;20063;-63
2022/10/28 07:11:32;;;;;;;21.58;11.18;;;;;;;;;;5037053;28;20117;-64
2022/10/28 07:13:58;;;;;;;21.65;11.38;;;;;;;;;;5036403;28;20079;-64
2022/10/28 07:16:24;;;;;;;21.30;10.90;;;;;;;;;;5037744;28;20024;-63
2022/10/28 07:18:50;;;;;;;21.80;11.15;;;;;;;;;;5036877;28;20025;-64
2022/10/28 07:21:17;;;;;;;24.73;11.65;;;;;;;;;;5054737;28;20035;-63
2022/10/28 07:23:43;;;;;;;24.63;12.10;;;;;;;;;;5036048;28;20138;-64
2022/10/28 07:26:09;;;;;;;23.77;10.98;;;;;;;;;;5054826;28;20017;-67
2022/10/28 07:28:35;;;;;;;29.13;11.35;;;;;;;;;;5048119;28;20426;-67
2022/10/28 07:31:01;;;;;;;23.42;10.95;;;;;;;;;;5075359;28;20017;-69
2022/10/28 07:33:27;;;;;;;25.20;11.10;;;;;;;;;;5074933;28;20027;-69
2022/10/28 07:35:53;;;;;;;21.90;12.15;;;;;;;;;;5075334;28;20021;-69
2022/10/28 07:38:19;;;;;;;22.40;11.68;;;;;;;;;;5074692;28;20023;-68
2022/10/28 07:40:45;;;;;;;21.90;11.02;;;;;;;;;;5054242;28;20058;-66
2022/10/28 07:43:11;;;;;;;22.05;11.55;;;;;;;;;;5053968;28;20175;-68
2022/10/28 07:45:38;;;;;;;22.42;11.25;;;;;;;;;;5054861;28;20479;-68
2022/10/28 07:48:04;;;;;;;19.42;12.18;;;;;;;;;;5072580;28;20068;-68
2022/10/28 07:50:30;;;;;;;27.27;11.70;;;;;;;;;;5072541;28;20432;-68
2022/10/28 07:52:56;;;;;;;22.27;10.95;;;;;;;;;;5072271;28;20024;-68
2022/10/28 07:55:23;;;;;;;21.55;10.52;;;;;;;;;;5055417;28;20028;-67
2022/10/28 07:57:49;;;;;;;25.33;11.77;;;;;;;;;;5055004;28;20025;-68
2022/10/28 08:00:15;;;;;;;23.15;10.88;;;;;;;;;;5056011;28;20069;-69
2022/10/28 08:02:41;;;;;;;22.73;12.98;;;;;;;;;;5074348;28;20029;-69
2022/10/28 08:05:07;;;;;;;25.73;11.40;;;;;;;;;;5054924;28;20073;-69
2022/10/28 08:07:33;;;;;;;24.00;11.02;;;;;;;;;;5055569;28;20082;-66
2022/10/28 08:09:59;;;;;;;18.40;11.38;;;;;;;;;;5073107;28;20020;-66
2022/10/28 08:12:27;;;;;;;23.33;11.35;;;;;;;;;;5074034;28;20590;-67
2022/10/28 08:14:54;;;;;;;23.95;11.60;;;;;;;;;;5055147;28;20074;-66
2022/10/28 08:17:21;;;;;;;24.20;11.60;;;;;;;;;;5055838;28;20029;-67
2022/10/28 08:19:47;;;;;;;22.80;11.82;;;;;;;;;;5056072;28;20475;-67
2022/10/28 08:22:13;;;;;;;23.35;12.65;;;;;;;;;;5055504;28;20103;-67
2022/10/28 08:24:39;;;;;;;24.60;11.70;;;;;;;;;;5072934;28;20024;-67
2022/10/28 08:27:05;;;;;;;25.80;12.23;;;;;;;;;;5056072;28;20115;-67
2022/10/28 08:29:32;;;;;;;22.15;11.88;;;;;;;;;;5053927;28;20031;-68
2022/10/28 08:31:58;;;;;;;23.10;11.90;;;;;;;;;;5055513;28;20040;-68
2022/10/28 08:34:28;;;;;;;24.13;11.27;;;;;;;;;;5054689;28;20028;-69
2022/10/28 08:36:55;;;;;;;20.20;11.25;;;;;;;;;;5073298;28;20082;-67
2022/10/28 08:39:21;;;;;;;23.05;11.27;;;;;;;;;;5072940;28;20020;-67
2022/10/28 08:41:51;;;;;;;21.90;11.43;;;;;;;;;;5055321;28;20029;-66
2022/10/28 08:44:23;;;;;;;22.83;12.20;;;;;;;;;;5072258;28;20032;-68
2022/10/28 08:46:56;;;;;;;23.50;11.65;;;;;;;;;;5073807;28;20046;-69
2022/10/28 08:49:23;;;;;;;22.30;11.80;;;;;;;;;;5055728;28;20039;-66
2022/10/28 08:51:53;;;;;;;25.27;11.27;;;;;;;;;;5047917;28;20036;-69
2022/10/28 08:54:37;;;;;;;22.73;11.98;;;;;;;;;;5071095;28;20103;-67
2022/10/28 08:57:05;;;;;;;22.73;11.32;;;;;;;;;;5055737;28;20524;-66
2022/10/28 08:59:39;;;;;;;24.90;11.38;;;;;;;;;;5043120;28;20544;-68
2022/10/28 09:02:08;;;;;;;23.90;12.30;;;;;;;;;;5036876;28;20469;-66
2022/10/28 09:04:45;;;;;;;20.35;11.50;;;;;;;;;;5036133;28;20464;-68
2022/10/28 09:07:15;;;;;;;24.70;12.32;;;;;;;;;;5055767;28;20040;-66
2022/10/28 09:09:44;;;;;;;23.15;11.27;;;;;;;;;;5037927;28;20128;-66
2022/10/28 09:12:16;;;;;;;22.90;12.30;;;;;;;;;;5041772;28;20021;-66
2022/10/28 09:14:49;;;;;;;23.42;12.27;;;;;;;;;;5037532;28;20532;-67
2022/10/28 09:17:19;;;;;;;24.17;11.85;;;;;;;;;;5039867;28;20033;-67
2022/10/28 09:19:51;;;;;;;19.45;10.77;;;;;;;;;;5038299;28;20043;-67
2022/10/28 09:22:23;;;;;;;26.25;12.30;;;;;;;;;;5054521;28;20013;-67
2022/10/28 09:24:52;;;;;;;24.95;11.85;;;;;;;;;;5055868;28;20059;-68
2022/10/28 09:27:31;;;;;;;20.25;12.00;;;;;;;;;;5038107;28;20029;-65
2022/10/28 09:29:58;;;;;;;21.88;11.45;;;;;;;;;;5041674;28;20051;-67
2022/10/28 09:32:39;;;;;;;20.90;11.55;;;;;;;;;;5061259;28;20052;-67
2022/10/28 09:35:16;;;;;;;22.02;12.48;;;;;;;;;;5040070;28;20129;-70
2022/10/28 09:37:48;;;;;;;25.50;12.23;;;;;;;;;;5040329;28;20029;-65
2022/10/28 09:40:18;;;;;;;23.92;12.70;;;;;;;;;;5039076;28;20021;-67
2022/10/28 09:42:47;;;;;;;20.75;11.02;;;;;;;;;;5057333;28;20036;-67
2022/10/28 09:45:33;;;;;;;22.75;11.70;;;;;;;;;;5034745;28;20025;-66
2022/10/28 09:47:59;;;;;;;29.00;11.40;;;;;;;;;;5036936;28;20021;-66
2022/10/28 09:50:28;;;;;;;25.25;11.82;;;;;;;;;;5040126;28;20036;-67
2022/10/28 09:53:12;;;;;;;25.67;12.07;;;;;;;;;;5048639;28;20426;-65
2022/10/28 09:55:38;;;;;;;24.75;12.35;;;;;;;;;;5036796;28;20021;-67
2022/10/28 09:58:05;;;;;;;22.75;12.13;;;;;;;;;;5035314;28;20021;-67
2022/10/28 10:00:31;;;;;;;32.85;12.27;;;;;;;;;;5037172;28;20021;-68
2022/10/28 10:02:58;;;;;;;21.63;13.07;;;;;;;;;;5039492;28;20035;-66
2022/10/28 10:05:24;;;;;;;24.95;10.77;;;;;;;;;;5038522;28;20083;-67
2022/10/28 10:07:52;;;;;;;25.83;12.25;;;;;;;;;;5038857;28;20017;-67
2022/10/28 10:10:22;;;;;;;22.67;12.90;;;;;;;;;;5057172;28;20151;-67
2022/10/28 10:12:50;;;;;;;24.67;13.68;;;;;;;;;;5037303;28;20051;-67
2022/10/28 10:15:25;;;;;;;26.10;12.02;;;;;;;;;;5041566;28;20484;-64
2022/10/28 10:17:55;;;;;;;22.73;12.15;;;;;;;;;;5039740;28;20040;-68
2022/10/28 10:20:21;;;;;;;22.65;13.40;;;;;;;;;;5036929;28;20045;-68
2022/10/28 10:22:48;;;;;;;23.45;12.07;;;;;;;;;;5052481;28;20419;-66
2022/10/28 10:25:17;;;;;;;24.10;11.95;;;;;;;;;;5052132;28;20020;-66
2022/10/28 10:27:58;;;;;;;21.98;12.25;;;;;;;;;;5052435;28;20032;-68
2022/10/28 10:30:26;;;;;;;22.75;12.38;;;;;;;;;;5035398;28;20021;-66
2022/10/28 10:32:52;;;;;;;24.67;11.97;;;;;;;;;;5036431;28;20150;-66
2022/10/28 10:35:20;;;;;;;24.48;12.02;;;;;;;;;;5039281;28;20025;-66
2022/10/28 10:37:47;;;;;;;24.85;12.35;;;;;;;;;;5063757;28;20025;-67
2022/10/28 10:40:22;;;;;;;21.00;12.98;;;;;;;;;;5054156;28;20094;-67
2022/10/28 10:42:49;;;;;;;21.77;12.55;;;;;;;;;;5039237;28;20108;-68
2022/10/28 10:45:15;;;;;;;22.90;12.40;;;;;;;;;;5038354;28;20024;-67
2022/10/28 10:47:41;;;;;;;25.13;12.75;;;;;;;;;;5055842;28;20594;-67
2022/10/28 10:50:19;;;;;;;21.27;11.45;;;;;;;;;;5077597;22;20037;-63
2022/10/28 10:52:45;;;;;;;;;;;;;;;;;;5035241;28;20025;-62
2022/10/28 10:55:18;;;;;;;24.35;12.15;;;;;;;;;;5034714;28;19919;-61
2022/10/28 10:57:47;;;;;;;26.75;12.63;;;;;;;;;;5035651;28;20028;-63
2022/10/28 11:00:19;;;;;;;24.20;12.52;;;;;;;;;;5035810;28;20491;-63
2022/10/28 11:02:46;;;;;;;25.98;12.20;;;;;;;;;;5035821;28;20036;-64
2022/10/28 11:05:18;;;;;;;23.65;11.75;;;;;;;;;;5052748;28;20037;-63
2022/10/28 11:07:47;;;;;;;22.25;12.27;;;;;;;;;;5053600;28;20035;-63
2022/10/28 11:10:29;;;;;;;22.75;12.55;;;;;;;;;;5034534;28;20120;-63
2022/10/28 11:13:01;;;;;;;18.70;12.30;;;;;;;;;;5015421;28;20405;-64
2022/10/28 11:15:28;;;;;;;28.15;12.73;;;;;;;;;;5015388;28;20025;-63
2022/10/28 11:17:59;;;;;;;23.52;13.50;;;;;;;;;;5015389;28;20045;-63
2022/10/28 11:20:39;;;;;;;23.15;13.48;;;;;;;;;;5047501;28;20071;-67
2022/10/28 11:23:05;;;;;;;29.10;13.57;;;;;;;;;;5034605;28;20021;-64
2022/10/28 11:25:37;;;;;;;21.17;12.57;;;;;;;;;;5034839;28;20025;-64
2022/10/28 11:28:22;;;;;;;25.67;12.93;;;;;;;;;;5052924;28;20072;-64
2022/10/28 11:30:57;;;;;;;27.67;13.20;;;;;;;;;;5052995;28;20025;-64
2022/10/28 11:33:32;;;;;;;21.80;12.85;;;;;;;;;;5028333;28;20116;-63
2022/10/28 11:36:01;;;;;;;24.40;13.05;;;;;;;;;;5015049;28;20021;-64
2022/10/28 11:38:40;;;;;;;21.30;12.85;;;;;;;;;;5032794;28;20021;-65
2022/10/28 11:41:16;;;;;;;27.05;12.80;;;;;;;;;;5016109;28;20378;-64
2022/10/28 11:43:45;;;;;;;25.02;13.30;;;;;;;;;;5031541;28;20120;-64
2022/10/28 11:46:11;;;;;;;21.17;12.73;;;;;;;;;;5014608;28;20028;-64
2022/10/28 11:48:43;;;;;;;22.73;13.23;;;;;;;;;;5013317;28;20029;-64
2022/10/28 11:51:10;;;;;;;20.92;12.25;;;;;;;;;;5014973;28;20105;-64
2022/10/28 11:53:47;;;;;;;23.00;12.60;;;;;;;;;;5043843;28;20025;-64
2022/10/28 11:56:31;;;;;;;19.45;12.90;;;;;;;;;;5034818;28;20036;-64
2022/10/28 11:59:04;;;;;;;20.52;12.45;;;;;;;;;;5034232;28;20013;-64
2022/10/28 12:01:33;;;;;;;23.92;13.43;;;;;;;;;;5034049;28;20417;-63
2022/10/28 12:04:07;;;;;;;23.40;12.68;;;;;;;;;;5050056;28;20056;-63
2022/10/28 12:06:39;;;;;;;21.48;13.30;;;;;;;;;;5050999;28;20013;-63
2022/10/28 12:09:17;;;;;;;25.05;13.00;;;;;;;;;;5050461;28;20078;-63
2022/10/28 12:11:46;;;;;;;22.02;13.85;;;;;;;;;;5051256;28;20025;-64
2022/10/28 12:14:31;;;;;;;21.67;13.35;;;;;;;;;;5049868;28;20409;-63
2022/10/28 12:17:03;;;;;;;20.15;12.73;;;;;;;;;;5050192;28;20554;-62
2022/10/28 12:19:36;;;;;;;20.50;12.80;;;;;;;;;;5034231;28;20116;-65
2022/10/28 12:22:06;;;;;;;22.75;13.13;;;;;;;;;;5051904;28;20024;-63
2022/10/28 12:24:35;;;;;;;30.00;13.98;;;;;;;;;;5033605;28;20520;-63
2022/10/28 12:27:05;;;;;;;23.33;12.93;;;;;;;;;;5033693;28;20397;-63
2022/10/28 12:29:36;;;;;;;23.17;12.68;;;;;;;;;;5051708;28;20033;-63
2022/10/28 12:32:12;;;;;;;22.45;13.15;;;;;;;;;;5034039;28;20025;-64
2022/10/28 12:35:00;;;;;;;29.50;12.85;;;;;;;;;;5033024;28;20025;-62
2022/10/28 12:37:52;;;;;;;24.37;13.13;;;;;;;;;;5033216;28;20052;-64
2022/10/28 12:40:24;;;;;;;26.38;14.13;;;;;;;;;;5018199;28;20116;-64
2022/10/28 12:42:54;;;;;;;25.25;14.45;;;;;;;;;;5051724;28;20029;-64
2022/10/28 12:45:21;;;;;;;27.15;13.85;;;;;;;;;;5033068;28;20052;-64
2022/10/28 12:47:47;;;;;;;21.90;12.68;;;;;;;;;;5051213;28;20040;-64
2022/10/28 12:50:32;;;;;;;22.67;13.23;;;;;;;;;;5030603;28;20060;-63
2022/10/28 12:53:01;;;;;;;24.20;12.35;;;;;;;;;;5051174;28;20104;-63
2022/10/28 12:55:39;;;;;;;27.10;13.52;;;;;;;;;;5050910;28;20025;-62
2022/10/28 12:58:05;;;;;;;;;;;;;;;;;;5024309;28;20029;-64
2022/10/28 13:00:34;;;;;;;21.45;13.68;;;;;;;;;;5013276;28;19905;-59
2022/10/28 13:03:07;;;;;;;27.15;13.93;;;;;;;;;;5031022;28;20078;-64
2022/10/28 13:05:43;;;;;;;24.88;13.48;;;;;;;;;;5013084;28;20029;-64
2022/10/28 13:08:21;;;;;;;24.27;14.43;;;;;;;;;;5012214;28;20029;-64
2022/10/28 13:10:47;;;;;;;;;;;;;;;;;;5020515;28;20613;-64
2022/10/28 13:13:32;;;;;;;26.52;14.00;;;;;;;;;;5050163;28;19979;-64
2022/10/28 13:16:06;;;;;;;22.90;12.68;;;;;;;;;;5049692;28;20111;-64
2022/10/28 13:18:35;;;;;;;20.52;13.40;;;;;;;;;;5050851;28;20017;-64
2022/10/28 13:21:19;;;;;;;21.13;12.73;;;;;;;;;;5049428;28;20377;-64
2022/10/28 13:23:48;;;;;;;27.02;13.70;;;;;;;;;;5048436;28;20384;-64
2022/10/28 13:26:21;;;;;;;23.05;13.68;;;;;;;;;;5032758;28;20523;-64
2022/10/28 13:28:48;;;;;;;24.33;13.20;;;;;;;;;;5050630;28;20025;-63
2022/10/28 13:31:15;;;;;;;26.63;13.45;;;;;;;;;;5032772;28;20036;-64
2022/10/28 13:33:47;;;;;;;25.85;14.13;;;;;;;;;;5030250;28;20116;-65
2022/10/28 13:36:18;;;;;;;23.27;12.85;;;;;;;;;;5047214;28;20124;-62
2022/10/28 13:38:55;;;;;;;24.65;14.55;;;;;;;;;;5012427;28;20021;-60
2022/10/28 13:41:33;;;;;;;23.42;13.25;;;;;;;;;;5011536;28;20120;-63
2022/10/28 13:44:13;;;;;;;22.40;13.63;;;;;;;;;;5012144;28;20052;-64
2022/10/28 13:46:57;;;;;;;26.08;13.10;;;;;;;;;;5012703;28;20436;-65
2022/10/28 13:49:23;;;;;;;25.23;13.68;;;;;;;;;;5030288;28;20041;-64
2022/10/28 13:51:50;;;;;;;27.05;13.75;;;;;;;;;;5030361;28;20079;-65
2022/10/28 13:54:31;;;;;;;22.05;12.88;;;;;;;;;;5027998;28;20044;-64
2022/10/28 13:57:01;;;;;;;21.25;13.18;;;;;;;;;;5032324;28;20040;-65
2022/10/28 13:59:29;;;;;;;23.38;12.73;;;;;;;;;;5048437;28;20108;-63
2022/10/28 14:01:57;;;;;;;25.08;13.95;;;;;;;;;;5032217;28;20021;-64
2022/10/28 14:04:23;;;;;;;24.67;13.60;;;;;;;;;;5024281;28;20071;-65
2022/10/28 14:06:49;;;;;;;25.52;12.70;;;;;;;;;;5030214;28;20041;-64
2022/10/28 14:09:23;;;;;;;22.98;13.13;;;;;;;;;;5012583;28;20116;-64
2022/10/28 14:12:07;;;;;;;23.13;13.00;;;;;;;;;;5012718;28;20061;-64
2022/10/28 14:14:34;;;;;;;23.77;12.98;;;;;;;;;;5029579;28;20080;-64
2022/10/28 14:17:00;;;;;;;23.63;12.15;;;;;;;;;;5012308;28;20024;-65
2022/10/28 14:19:26;;;;;;;23.88;12.50;;;;;;;;;;5012437;28;20386;-64
2022/10/28 14:21:58;;;;;;;30.02;15.25;;;;;;;;;;5012670;28;20048;-65
2022/10/28 14:24:32;;;;;;;22.98;13.52;;;;;;;;;;5029600;28;20030;-64
2022/10/28 14:27:07;;;;;;;24.00;13.75;;;;;;;;;;5030222;28;20109;-64
2022/10/28 14:29:49;;;;;;;22.58;13.02;;;;;;;;;;5012225;28;20028;-64
2022/10/28 14:32:30;;;;;;;28.67;14.07;;;;;;;;;;5020605;28;20031;-65